createdAt,value
2023-04-25T00:00:48.104Z,33.25
2023-04-25T00:01:48.080Z,32.28
2023-04-25T00:02:48.243Z,33.25
2023-04-25T00:03:48.439Z,32.28
2023-04-25T00:04:48.411Z,32.28
2023-04-25T00:05:48.053Z,32.33
2023-04-25T00:06:48.039Z,32.28
2023-04-25T00:07:48.013Z,32.28
2023-04-25T00:08:48.006Z,32.28
2023-04-25T00:09:47.967Z,32.01
2023-04-25T00:10:47.975Z,32.28
2023-04-25T00:11:47.943Z,32.28
2023-04-25T00:12:47.942Z,32.28
2023-04-25T00:13:48.159Z,32.76
2023-04-25T00:14:47.906Z,32.28
2023-04-25T00:15:47.928Z,32.28
2023-04-25T00:16:47.894Z,32.23
2023-04-25T00:17:47.899Z,33.25
2023-04-25T00:18:47.854Z,32.28
2023-04-25T00:19:47.860Z,32.28
2023-04-25T00:20:47.836Z,32.28
2023-04-25T00:21:47.811Z,32.28
2023-04-25T00:22:47.812Z,32.28
2023-04-25T00:23:47.928Z,32.28
2023-04-25T00:24:47.783Z,32.28
2023-04-25T00:25:47.773Z,32.33
2023-04-25T00:26:47.763Z,32.23
2023-04-25T00:27:47.738Z,32.28
2023-04-25T00:28:47.728Z,32.28
2023-04-25T00:29:47.722Z,32.28
2023-04-25T00:30:47.701Z,32.28
2023-04-25T00:31:47.748Z,32.28
2023-04-25T00:32:47.687Z,32.28
2023-04-25T00:33:47.771Z,32.28
2023-04-25T00:34:47.652Z,32.23
2023-04-25T00:35:47.644Z,32.28
2023-04-25T00:36:55.145Z,32.23
2023-04-25T00:37:47.615Z,32.33
2023-04-25T00:38:47.613Z,32.28
2023-04-25T00:39:47.574Z,32.28
2023-04-25T00:40:47.571Z,32.23
2023-04-25T00:41:47.553Z,32.33
2023-04-25T00:42:47.545Z,32.28
2023-04-25T00:43:47.660Z,32.50
2023-04-25T00:44:47.514Z,32.33
2023-04-25T00:45:47.496Z,33.25
2023-04-25T00:46:47.537Z,32.28
2023-04-25T00:47:47.491Z,32.23
2023-04-25T00:48:47.462Z,32.28
2023-04-25T00:49:47.472Z,32.28
2023-04-25T00:50:47.434Z,32.28
2023-04-25T00:51:47.437Z,32.28
2023-04-25T00:52:47.418Z,32.28
2023-04-25T00:53:47.410Z,32.28
2023-04-25T00:54:47.380Z,32.28
2023-04-25T00:55:47.360Z,32.28
2023-04-25T00:56:47.368Z,32.28
2023-04-25T00:57:47.347Z,32.23
2023-04-25T00:58:47.349Z,32.23
2023-04-25T00:59:47.339Z,32.28
2023-04-25T01:00:47.367Z,32.28
2023-04-25T01:01:47.323Z,32.28
2023-04-25T01:02:47.438Z,32.28
2023-04-25T01:03:47.315Z,32.28
2023-04-25T01:04:47.248Z,32.28
2023-04-25T01:05:47.229Z,32.28
2023-04-25T01:06:47.250Z,32.28
2023-04-25T01:07:47.241Z,32.33
2023-04-25T01:08:47.200Z,32.33
2023-04-25T01:09:47.193Z,32.28
2023-04-25T01:10:47.188Z,32.33
2023-04-25T01:11:47.177Z,32.28
2023-04-25T01:12:47.159Z,32.28
2023-04-25T01:13:47.144Z,32.28
2023-04-25T01:14:47.129Z,32.28
2023-04-25T01:15:47.112Z,32.28
2023-04-25T01:16:47.105Z,32.33
2023-04-25T01:17:47.099Z,32.33
2023-04-25T01:18:47.063Z,32.28
2023-04-25T01:19:47.054Z,32.28
2023-04-25T01:20:47.034Z,32.28
2023-04-25T01:21:47.054Z,32.28
2023-04-25T01:22:47.005Z,32.55
2023-04-25T01:23:47.065Z,32.28
2023-04-25T01:24:47.000Z,32.28
2023-04-25T01:25:46.974Z,32.33
2023-04-25T01:26:46.965Z,32.28
2023-04-25T01:27:46.957Z,32.33
2023-04-25T01:28:46.955Z,32.33
2023-04-25T01:29:46.924Z,32.28
2023-04-25T01:30:46.912Z,32.23
2023-04-25T01:31:46.962Z,32.23
2023-04-25T01:32:46.906Z,32.28
2023-04-25T01:33:46.884Z,32.28
2023-04-25T01:34:46.863Z,32.28
2023-04-25T01:35:46.843Z,32.44
2023-04-25T01:36:46.863Z,32.28
2023-04-25T01:37:46.835Z,32.28
2023-04-25T01:38:46.803Z,32.33
2023-04-25T01:39:46.814Z,32.23
2023-04-25T01:40:46.811Z,32.28
2023-04-25T01:41:46.794Z,32.33
2023-04-25T01:42:46.760Z,32.28
2023-04-25T01:43:46.742Z,32.28
2023-04-25T01:44:46.724Z,32.23
2023-04-25T01:45:46.734Z,32.28
2023-04-25T01:46:46.713Z,32.28
2023-04-25T01:47:46.721Z,32.28
2023-04-25T01:48:46.683Z,32.28
2023-04-25T01:49:46.666Z,32.28
2023-04-25T01:50:46.641Z,32.33
2023-04-25T01:51:46.665Z,32.28
2023-04-25T01:52:46.655Z,32.28
2023-04-25T01:53:46.604Z,32.28
2023-04-25T01:54:46.616Z,32.23
2023-04-25T01:55:46.584Z,32.28
2023-04-25T01:56:46.577Z,32.28
2023-04-25T01:57:46.569Z,32.33
2023-04-25T01:58:46.537Z,32.28
2023-04-25T01:59:46.541Z,32.28
2023-04-25T02:00:46.528Z,32.28
2023-04-25T02:01:46.558Z,32.28
2023-04-25T02:02:46.593Z,32.33
2023-04-25T02:03:46.560Z,32.28
2023-04-25T02:04:46.530Z,33.19
2023-04-25T02:05:46.458Z,32.28
2023-04-25T02:06:46.450Z,32.28
2023-04-25T02:07:46.436Z,32.28
2023-04-25T02:08:46.417Z,32.28
2023-04-25T02:09:46.656Z,32.28
2023-04-25T02:10:46.380Z,32.28
2023-04-25T02:11:46.388Z,32.33
2023-04-25T02:12:46.362Z,32.28
2023-04-25T02:13:46.347Z,32.28
2023-04-25T02:14:46.394Z,32.23
2023-04-25T02:15:46.672Z,32.28
2023-04-25T02:16:46.378Z,32.17
2023-04-25T02:17:46.362Z,32.28
2023-04-25T02:18:46.290Z,32.23
2023-04-25T02:19:46.270Z,32.28
2023-04-25T02:20:46.249Z,32.23
2023-04-25T02:21:46.262Z,31.80
2023-04-25T02:22:46.233Z,32.28
2023-04-25T02:23:46.219Z,32.33
2023-04-25T02:24:46.205Z,32.28
2023-04-25T02:25:46.206Z,32.28
2023-04-25T02:26:46.195Z,32.28
2023-04-25T02:27:46.169Z,32.28
2023-04-25T02:28:46.184Z,32.28
2023-04-25T02:29:46.137Z,32.28
2023-04-25T02:30:46.127Z,32.28
2023-04-25T02:31:46.244Z,32.28
2023-04-25T02:32:46.150Z,32.28
2023-04-25T02:33:46.089Z,32.01
2023-04-25T02:34:46.073Z,32.23
2023-04-25T02:35:46.066Z,32.28
2023-04-25T02:36:46.063Z,32.28
2023-04-25T02:37:46.048Z,32.28
2023-04-25T02:38:46.046Z,32.33
2023-04-25T02:39:46.009Z,32.28
2023-04-25T02:40:46.001Z,32.28
2023-04-25T02:41:45.995Z,32.28
2023-04-25T02:42:45.969Z,32.28
2023-04-25T02:43:45.967Z,32.28
2023-04-25T02:44:45.938Z,32.23
2023-04-25T02:45:45.938Z,32.28
2023-04-25T02:46:45.940Z,32.28
2023-04-25T02:47:46.047Z,32.28
2023-04-25T02:48:45.911Z,32.28
2023-04-25T02:49:45.889Z,32.23
2023-04-25T02:50:45.865Z,32.28
2023-04-25T02:51:45.867Z,32.28
2023-04-25T02:52:45.848Z,32.28
2023-04-25T02:53:45.840Z,32.23
2023-04-25T02:54:45.807Z,32.28
2023-04-25T02:55:45.811Z,32.28
2023-04-25T02:56:45.853Z,32.28
2023-04-25T02:57:45.791Z,32.28
2023-04-25T02:58:45.774Z,32.28
2023-04-25T02:59:45.761Z,32.28
2023-04-25T03:00:45.816Z,32.28
2023-04-25T03:01:45.741Z,32.28
2023-04-25T03:02:45.754Z,32.28
2023-04-25T03:03:45.823Z,32.23
2023-04-25T03:04:45.768Z,32.28
2023-04-25T03:05:45.675Z,32.28
2023-04-25T03:06:45.663Z,32.28
2023-04-25T03:07:45.694Z,32.28
2023-04-25T03:08:45.636Z,32.28
2023-04-25T03:09:45.628Z,32.33
2023-04-25T03:10:45.642Z,32.28
2023-04-25T03:11:45.621Z,32.33
2023-04-25T03:12:45.670Z,32.23
2023-04-25T03:13:45.580Z,32.23
2023-04-25T03:14:45.608Z,32.28
2023-04-25T03:15:45.592Z,32.28
2023-04-25T03:16:45.575Z,32.28
2023-04-25T03:17:45.516Z,32.28
2023-04-25T03:18:45.501Z,32.23
2023-04-25T03:19:45.496Z,32.44
2023-04-25T03:20:45.493Z,32.28
2023-04-25T03:21:45.482Z,32.28
2023-04-25T03:22:45.450Z,32.33
2023-04-25T03:23:45.445Z,32.23
2023-04-25T03:24:45.450Z,32.28
2023-04-25T03:25:45.415Z,32.28
2023-04-25T03:26:45.408Z,32.28
2023-04-25T03:27:45.421Z,31.47
2023-04-25T03:28:45.371Z,32.33
2023-04-25T03:29:45.360Z,32.28
2023-04-25T03:30:45.353Z,32.28
2023-04-25T03:31:45.385Z,32.28
2023-04-25T03:32:45.379Z,32.17
2023-04-25T03:33:45.342Z,32.28
2023-04-25T03:34:45.306Z,32.28
2023-04-25T03:35:45.277Z,32.28
2023-04-25T03:36:45.286Z,32.28
2023-04-25T03:37:45.274Z,32.28
2023-04-25T03:38:45.263Z,32.12
2023-04-25T03:39:45.239Z,32.28
2023-04-25T03:40:45.233Z,32.28
2023-04-25T03:41:45.394Z,32.33
2023-04-25T03:42:45.344Z,32.28
2023-04-25T03:43:45.205Z,32.28
2023-04-25T03:44:45.177Z,32.28
2023-04-25T03:45:45.213Z,32.28
2023-04-25T03:46:45.165Z,32.28
2023-04-25T03:47:45.191Z,32.28
2023-04-25T03:48:45.147Z,32.28
2023-04-25T03:49:45.142Z,32.33
2023-04-25T03:50:45.136Z,32.28
2023-04-25T03:51:45.147Z,32.28
2023-04-25T03:52:45.093Z,32.28
2023-04-25T03:53:45.077Z,32.28
2023-04-25T03:54:45.075Z,32.28
2023-04-25T03:55:45.107Z,32.28
2023-04-25T03:56:45.037Z,32.33
2023-04-25T03:57:45.090Z,32.28
2023-04-25T03:58:44.991Z,32.33
2023-04-25T03:59:44.997Z,32.28
2023-04-25T04:00:45.001Z,32.28
2023-04-25T04:01:45.072Z,32.28
2023-04-25T04:02:45.661Z,32.28
2023-04-25T04:03:45.184Z,32.23
2023-04-25T04:04:45.134Z,32.28
2023-04-25T04:05:45.002Z,32.28
2023-04-25T04:06:44.909Z,32.23
2023-04-25T04:07:44.906Z,32.28
2023-04-25T04:08:44.847Z,32.28
2023-04-25T04:09:44.850Z,32.28
2023-04-25T04:10:44.837Z,32.33
2023-04-25T04:11:44.823Z,32.28
2023-04-25T04:12:44.825Z,32.28
2023-04-25T04:13:44.797Z,32.23
2023-04-25T04:14:44.778Z,32.28
2023-04-25T04:15:44.790Z,32.23
2023-04-25T04:16:44.752Z,32.28
2023-04-25T04:17:44.773Z,32.28
2023-04-25T04:18:44.722Z,32.28
2023-04-25T04:19:44.713Z,32.33
2023-04-25T04:20:44.701Z,32.28
2023-04-25T04:21:44.713Z,32.28
2023-04-25T04:22:44.687Z,32.28
2023-04-25T04:23:44.664Z,32.28
2023-04-25T04:24:44.697Z,32.28
2023-04-25T04:25:44.660Z,32.28
2023-04-25T04:26:44.624Z,32.28
2023-04-25T04:27:44.625Z,32.28
2023-04-25T04:28:44.619Z,32.33
2023-04-25T04:29:44.591Z,32.23
2023-04-25T04:30:44.617Z,32.28
2023-04-25T04:31:44.620Z,32.28
2023-04-25T04:32:44.677Z,32.23
2023-04-25T04:33:44.625Z,32.28
2023-04-25T04:34:44.521Z,32.28
2023-04-25T04:35:44.582Z,32.76
2023-04-25T04:36:44.593Z,32.28
2023-04-25T04:37:44.572Z,32.23
2023-04-25T04:38:44.611Z,32.28
2023-04-25T04:39:44.465Z,32.33
2023-04-25T04:40:44.501Z,32.28
2023-04-25T04:41:44.446Z,32.28
2023-04-25T04:42:44.416Z,32.28
2023-04-25T04:43:44.427Z,32.28
2023-04-25T04:44:44.391Z,32.28
2023-04-25T04:45:44.389Z,32.28
2023-04-25T04:46:44.397Z,32.28
2023-04-25T04:47:44.392Z,32.28
2023-04-25T04:48:44.348Z,32.33
2023-04-25T04:49:44.326Z,32.28
2023-04-25T04:50:44.325Z,32.28
2023-04-25T04:51:44.313Z,32.23
2023-04-25T04:52:44.284Z,32.28
2023-04-25T04:53:44.288Z,32.28
2023-04-25T04:54:44.266Z,32.39
2023-04-25T04:55:44.273Z,32.23
2023-04-25T04:56:44.259Z,32.28
2023-04-25T04:57:44.227Z,32.28
2023-04-25T04:58:44.230Z,32.28
2023-04-25T04:59:44.216Z,32.17
2023-04-25T05:00:44.222Z,32.28
2023-04-25T05:01:44.180Z,32.28
2023-04-25T05:02:44.273Z,32.28
2023-04-25T05:03:44.262Z,32.23
2023-04-25T05:04:44.216Z,32.23
2023-04-25T05:05:44.130Z,32.28
2023-04-25T05:06:44.141Z,32.28
2023-04-25T05:07:44.130Z,32.33
2023-04-25T05:08:44.086Z,32.28
2023-04-25T05:09:44.095Z,32.28
2023-04-25T05:10:44.065Z,32.33
2023-04-25T05:11:44.056Z,32.28
2023-04-25T05:12:44.018Z,32.28
2023-04-25T05:13:44.015Z,32.28
2023-04-25T05:14:44.016Z,32.33
2023-04-25T05:15:43.995Z,32.28
2023-04-25T05:16:44.074Z,32.28
2023-04-25T05:17:44.005Z,32.28
2023-04-25T05:18:43.952Z,32.23
2023-04-25T05:19:43.927Z,32.23
2023-04-25T05:20:43.912Z,32.28
2023-04-25T05:21:43.912Z,32.23
2023-04-25T05:22:43.905Z,32.28
2023-04-25T05:23:43.892Z,32.28
2023-04-25T05:24:43.878Z,32.28
2023-04-25T05:25:43.872Z,32.28
2023-04-25T05:26:43.855Z,32.28
2023-04-25T05:27:43.846Z,32.55
2023-04-25T05:28:43.825Z,32.28
2023-04-25T05:29:43.814Z,32.28
2023-04-25T05:30:43.801Z,32.28
2023-04-25T05:31:43.802Z,32.23
2023-04-25T05:32:43.837Z,32.28
2023-04-25T05:33:43.847Z,32.28
2023-04-25T05:34:43.753Z,32.28
2023-04-25T05:35:43.722Z,32.28
2023-04-25T05:36:43.716Z,32.28
2023-04-25T05:37:43.714Z,32.28
2023-04-25T05:38:43.705Z,32.28
2023-04-25T05:39:43.686Z,32.33
2023-04-25T05:40:43.656Z,32.28
2023-04-25T05:41:44.455Z,32.28
2023-04-25T05:42:49.727Z,32.28
2023-04-25T05:43:49.049Z,32.28
2023-04-25T05:44:47.941Z,32.23
2023-04-25T05:45:44.365Z,32.33
2023-04-25T05:46:43.579Z,32.28
2023-04-25T05:47:43.607Z,32.23
2023-04-25T05:48:43.561Z,32.28
2023-04-25T05:49:43.539Z,32.28
2023-04-25T05:50:43.529Z,32.33
2023-04-25T05:51:43.518Z,32.28
2023-04-25T05:52:43.531Z,32.28
2023-04-25T05:53:43.483Z,32.23
2023-04-25T05:54:43.473Z,32.28
2023-04-25T05:55:43.466Z,32.33
2023-04-25T05:56:43.462Z,32.28
2023-04-25T05:57:43.448Z,32.23
2023-04-25T05:58:43.429Z,32.28
2023-04-25T05:59:43.412Z,32.28
2023-04-25T06:00:43.400Z,32.28
2023-04-25T06:01:43.382Z,32.28
2023-04-25T06:02:43.499Z,32.33
2023-04-25T06:03:43.712Z,32.28
2023-04-25T06:04:43.586Z,32.28
2023-04-25T06:05:43.347Z,32.28
2023-04-25T06:06:43.324Z,32.28
2023-04-25T06:07:43.314Z,32.33
2023-04-25T06:08:43.291Z,32.28
2023-04-25T06:09:43.278Z,32.28
2023-04-25T06:10:43.278Z,32.28
2023-04-25T06:11:43.252Z,32.33
2023-04-25T06:12:43.272Z,32.28
2023-04-25T06:13:43.228Z,32.28
2023-04-25T06:14:43.217Z,32.28
2023-04-25T06:15:43.217Z,32.33
2023-04-25T06:16:43.190Z,32.28
2023-04-25T06:17:43.212Z,32.28
2023-04-25T06:18:43.174Z,32.28
2023-04-25T06:19:43.147Z,32.28
2023-04-25T06:20:43.141Z,32.28
2023-04-25T06:21:43.124Z,32.28
2023-04-25T06:22:43.124Z,32.28
2023-04-25T06:23:43.096Z,32.28
2023-04-25T06:24:43.088Z,32.28
2023-04-25T06:25:43.069Z,32.28
2023-04-25T06:26:43.069Z,32.28
2023-04-25T06:27:43.049Z,32.28
2023-04-25T06:28:43.024Z,32.28
2023-04-25T06:29:43.019Z,31.90
2023-04-25T06:30:43.008Z,32.28
2023-04-25T06:31:43.113Z,32.23
2023-04-25T06:32:43.027Z,32.28
2023-04-25T06:33:42.974Z,32.28
2023-04-25T06:34:42.960Z,32.28
2023-04-25T06:35:42.942Z,32.28
2023-04-25T06:36:42.966Z,32.28
2023-04-25T06:37:42.928Z,32.33
2023-04-25T06:38:42.924Z,32.28
2023-04-25T06:39:42.887Z,32.33
2023-04-25T06:40:42.887Z,32.28
2023-04-25T06:41:42.874Z,32.28
2023-04-25T06:42:42.866Z,32.28
2023-04-25T06:43:42.845Z,32.28
2023-04-25T06:44:42.827Z,32.28
2023-04-25T06:45:42.810Z,32.28
2023-04-25T06:46:42.823Z,32.28
2023-04-25T06:47:42.853Z,32.28
2023-04-25T06:48:42.776Z,32.28
2023-04-25T06:49:42.770Z,32.33
2023-04-25T06:50:42.749Z,32.23
2023-04-25T06:51:42.744Z,32.28
2023-04-25T06:52:42.747Z,32.39
2023-04-25T06:53:42.717Z,32.28
2023-04-25T06:54:42.697Z,32.28
2023-04-25T06:55:42.692Z,32.28
2023-04-25T06:56:42.672Z,32.28
2023-04-25T06:57:42.683Z,32.33
2023-04-25T06:58:42.656Z,32.28
2023-04-25T06:59:42.633Z,32.33
2023-04-25T07:00:42.679Z,32.28
2023-04-25T07:01:42.606Z,32.28
2023-04-25T07:02:42.724Z,32.28
2023-04-25T07:03:42.688Z,32.28
2023-04-25T07:04:42.725Z,32.28
2023-04-25T07:05:42.550Z,32.28
2023-04-25T07:06:42.548Z,32.28
2023-04-25T07:07:42.554Z,32.28
2023-04-25T07:08:42.525Z,32.28
2023-04-25T07:09:42.509Z,32.28
2023-04-25T07:10:42.510Z,32.28
2023-04-25T07:11:42.484Z,32.28
2023-04-25T07:12:42.489Z,32.28
2023-04-25T07:13:42.454Z,32.28
2023-04-25T07:14:42.460Z,32.28
2023-04-25T07:15:42.435Z,32.28
2023-04-25T07:16:42.443Z,31.04
2023-04-25T07:17:42.433Z,32.28
2023-04-25T07:18:42.393Z,32.23
2023-04-25T07:19:42.381Z,32.28
2023-04-25T07:20:42.370Z,32.28
2023-04-25T07:21:42.358Z,32.28
2023-04-25T07:22:42.383Z,32.28
2023-04-25T07:23:42.343Z,32.28
2023-04-25T07:24:42.327Z,32.28
2023-04-25T07:25:42.307Z,32.28
2023-04-25T07:26:42.294Z,31.10
2023-04-25T07:27:42.285Z,32.28
2023-04-25T07:28:42.269Z,31.10
2023-04-25T07:29:42.245Z,32.23
2023-04-25T07:30:42.247Z,32.33
2023-04-25T07:31:42.274Z,32.28
2023-04-25T07:32:42.256Z,31.15
2023-04-25T07:33:42.198Z,32.28
2023-04-25T07:34:42.186Z,32.28
2023-04-25T07:35:42.186Z,32.33
2023-04-25T07:36:42.158Z,31.10
2023-04-25T07:37:42.152Z,32.28
2023-04-25T07:38:42.134Z,32.33
2023-04-25T07:39:42.122Z,32.28
2023-04-25T07:40:42.125Z,32.28
2023-04-25T07:41:42.091Z,32.28
2023-04-25T07:42:42.089Z,32.28
2023-04-25T07:43:42.075Z,31.15
2023-04-25T07:44:42.067Z,31.10
2023-04-25T07:45:42.042Z,31.10
2023-04-25T07:46:42.024Z,32.66
2023-04-25T07:47:42.056Z,31.10
2023-04-25T07:48:41.999Z,32.28
2023-04-25T07:49:41.987Z,32.28
2023-04-25T07:50:41.975Z,32.33
2023-04-25T07:51:41.956Z,32.33
2023-04-25T07:52:41.954Z,31.10
2023-04-25T07:53:41.927Z,32.28
2023-04-25T07:54:41.928Z,31.10
2023-04-25T07:55:41.904Z,32.33
2023-04-25T07:56:52.080Z,32.28
2023-04-25T07:57:42.888Z,31.10
2023-04-25T07:58:41.878Z,31.10
2023-04-25T07:59:41.854Z,31.10
2023-04-25T08:00:41.859Z,32.28
2023-04-25T08:01:41.827Z,31.15
2023-04-25T08:02:41.884Z,32.28
2023-04-25T08:03:42.084Z,32.28
2023-04-25T08:04:42.014Z,33.89
2023-04-25T08:05:41.885Z,32.28
2023-04-25T08:06:41.839Z,31.15
2023-04-25T08:07:41.762Z,31.15
2023-04-25T08:08:41.733Z,32.33
2023-04-25T08:09:41.727Z,32.28
2023-04-25T08:10:41.715Z,31.37
2023-04-25T08:11:41.693Z,31.15
2023-04-25T08:12:41.692Z,32.28
2023-04-25T08:13:41.665Z,31.10
2023-04-25T08:14:41.655Z,32.28
2023-04-25T08:15:41.656Z,31.15
2023-04-25T08:16:41.630Z,32.28
2023-04-25T08:17:41.690Z,31.15
2023-04-25T08:18:41.612Z,32.28
2023-04-25T08:19:41.594Z,32.28
2023-04-25T08:20:41.584Z,31.10
2023-04-25T08:21:41.575Z,31.15
2023-04-25T08:22:41.581Z,32.28
2023-04-25T08:23:41.532Z,31.10
2023-04-25T08:24:41.535Z,32.28
2023-04-25T08:25:41.500Z,32.28
2023-04-25T08:26:41.504Z,32.28
2023-04-25T08:27:41.485Z,32.28
2023-04-25T08:28:41.482Z,31.10
2023-04-25T08:29:41.461Z,31.10
2023-04-25T08:30:41.453Z,32.33
2023-04-25T08:31:41.481Z,31.10
2023-04-25T08:32:41.447Z,32.28
2023-04-25T08:33:41.410Z,31.37
2023-04-25T08:34:41.395Z,32.33
2023-04-25T08:35:41.416Z,31.10
2023-04-25T08:36:41.370Z,32.33
2023-04-25T08:37:41.352Z,31.10
2023-04-25T08:38:41.354Z,32.33
2023-04-25T08:39:41.358Z,31.10
2023-04-25T08:40:41.312Z,31.10
2023-04-25T08:41:41.302Z,31.10
2023-04-25T08:42:41.421Z,32.33
2023-04-25T08:43:41.283Z,31.15
2023-04-25T08:44:41.265Z,31.10
2023-04-25T08:45:41.252Z,31.10
2023-04-25T08:46:41.255Z,31.10
2023-04-25T08:47:41.246Z,31.10
2023-04-25T08:48:41.224Z,31.15
2023-04-25T08:49:41.184Z,31.10
2023-04-25T08:50:41.182Z,32.23
2023-04-25T08:51:41.164Z,32.44
2023-04-25T08:52:41.155Z,32.28
2023-04-25T08:53:41.138Z,31.10
2023-04-25T08:54:41.932Z,32.28
2023-04-25T08:55:41.123Z,32.23
2023-04-25T08:56:41.105Z,32.23
2023-04-25T08:57:41.080Z,32.23
2023-04-25T08:58:41.200Z,31.15
2023-04-25T08:59:41.065Z,31.15
2023-04-25T09:00:41.142Z,31.10
2023-04-25T09:01:41.216Z,32.28
2023-04-25T09:02:41.290Z,31.15
2023-04-25T09:03:41.121Z,31.10
2023-04-25T09:04:41.167Z,32.28
2023-04-25T09:05:40.974Z,32.33
2023-04-25T09:06:40.973Z,32.28
2023-04-25T09:07:40.947Z,31.10
2023-04-25T09:08:40.958Z,32.28
2023-04-25T09:09:40.968Z,31.15
2023-04-25T09:10:40.943Z,32.33
2023-04-25T09:11:40.901Z,31.15
2023-04-25T09:12:40.882Z,31.15
2023-04-25T09:13:40.878Z,31.10
2023-04-25T09:14:40.856Z,31.10
2023-04-25T09:15:40.847Z,31.10
2023-04-25T09:16:41.709Z,31.15
2023-04-25T09:17:40.814Z,31.15
2023-04-25T09:19:42.514Z,31.10
2023-04-25T09:21:40.765Z,31.15
2023-04-25T09:22:40.761Z,31.15
2023-04-25T09:23:40.803Z,32.33
2023-04-25T09:24:40.738Z,30.94
2023-04-25T09:25:40.729Z,31.15
2023-04-25T09:26:40.709Z,32.28
2023-04-25T09:27:40.688Z,31.15
2023-04-25T09:28:40.684Z,31.10
2023-04-25T09:29:40.657Z,31.10
2023-04-25T09:30:40.646Z,31.10
2023-04-25T09:31:40.707Z,32.33
2023-04-25T09:32:40.651Z,32.28
2023-04-25T09:33:40.621Z,31.15
2023-04-25T09:34:40.627Z,31.10
2023-04-25T09:35:40.676Z,31.10
2023-04-25T09:36:40.600Z,31.15
2023-04-25T09:37:40.565Z,31.15
2023-04-25T09:38:40.556Z,31.15
2023-04-25T09:39:40.530Z,31.10
2023-04-25T09:40:40.531Z,31.15
2023-04-25T09:41:40.509Z,31.15
2023-04-25T09:42:40.489Z,31.15
2023-04-25T09:43:40.489Z,31.10
2023-04-25T09:44:40.467Z,31.15
2023-04-25T09:45:40.475Z,31.10
2023-04-25T09:46:40.549Z,31.15
2023-04-25T09:47:40.477Z,31.15
2023-04-25T09:48:40.436Z,31.10
2023-04-25T09:49:40.405Z,31.21
2023-04-25T09:50:40.388Z,31.10
2023-04-25T09:51:40.379Z,31.15
2023-04-25T09:52:40.429Z,31.15
2023-04-25T09:53:40.376Z,31.10
2023-04-25T09:54:40.347Z,31.10
2023-04-25T09:55:40.323Z,31.15
2023-04-25T09:56:40.302Z,31.10
2023-04-25T09:57:40.300Z,31.10
2023-04-25T09:58:40.296Z,32.28
2023-04-25T09:59:40.274Z,31.15
2023-04-25T10:00:40.263Z,31.15
2023-04-25T10:01:40.247Z,31.21
2023-04-25T10:02:40.319Z,31.15
2023-04-25T10:03:40.444Z,31.04
2023-04-25T10:04:40.219Z,31.15
2023-04-25T10:05:40.192Z,31.10
2023-04-25T10:06:40.186Z,31.15
2023-04-25T10:07:40.181Z,31.04
2023-04-25T10:08:40.363Z,32.28
2023-04-25T10:09:40.174Z,31.15
2023-04-25T10:10:40.121Z,31.15
2023-04-25T10:11:40.123Z,32.55
2023-04-25T10:12:40.103Z,31.15
2023-04-25T10:13:40.087Z,30.94
2023-04-25T10:14:40.081Z,31.15
2023-04-25T10:15:40.536Z,31.10
2023-04-25T10:16:40.043Z,31.10
2023-04-25T10:17:40.089Z,31.10
2023-04-25T10:18:40.026Z,30.99
2023-04-25T10:19:40.020Z,31.74
2023-04-25T10:20:39.994Z,32.28
2023-04-25T10:21:39.988Z,31.21
2023-04-25T10:22:39.972Z,31.10
2023-04-25T10:23:39.977Z,32.28
2023-04-25T10:24:39.951Z,32.33
2023-04-25T10:25:39.928Z,31.15
2023-04-25T10:26:39.918Z,32.28
2023-04-25T10:27:39.911Z,31.10
2023-04-25T10:28:39.884Z,31.10
2023-04-25T10:29:39.886Z,31.10
2023-04-25T10:30:39.904Z,31.15
2023-04-25T10:31:39.983Z,31.10
2023-04-25T10:32:39.858Z,31.15
2023-04-25T10:33:39.830Z,31.15
2023-04-25T10:34:39.840Z,31.10
2023-04-25T10:35:39.804Z,31.10
2023-04-25T10:36:39.783Z,31.10
2023-04-25T10:37:40.833Z,31.10
2023-04-25T10:38:39.763Z,31.10
2023-04-25T10:39:39.759Z,31.15
2023-04-25T10:40:39.728Z,31.10
2023-04-25T10:41:39.721Z,31.10
2023-04-25T10:42:39.703Z,32.28
2023-04-25T10:43:39.692Z,31.15
2023-04-25T10:44:39.687Z,31.10
2023-04-25T10:45:39.666Z,31.15
2023-04-25T10:46:39.686Z,31.10
2023-04-25T10:47:39.660Z,31.15
2023-04-25T10:48:39.634Z,33.19
2023-04-25T10:49:39.628Z,31.10
2023-04-25T10:50:39.801Z,31.10
2023-04-25T10:51:51.645Z,31.10
2023-04-25T10:52:40.572Z,31.10
2023-04-25T10:53:39.567Z,31.10
2023-04-25T10:54:39.559Z,31.15
2023-04-25T10:55:39.534Z,31.10
2023-04-25T10:56:39.516Z,32.28
2023-04-25T10:57:39.505Z,31.10
2023-04-25T10:58:39.502Z,31.10
2023-04-25T10:59:39.505Z,30.88
2023-04-25T11:00:48.277Z,31.15
2023-04-25T11:01:40.472Z,31.10
2023-04-25T11:02:39.801Z,31.10
2023-04-25T11:03:39.549Z,31.10
2023-04-25T11:04:39.525Z,31.15
2023-04-25T11:05:50.840Z,31.26
2023-04-25T11:06:40.385Z,31.15
2023-04-25T11:07:39.402Z,31.10
2023-04-25T11:08:39.371Z,31.10
2023-04-25T11:09:39.379Z,31.10
2023-04-25T11:10:39.334Z,31.15
2023-04-25T11:11:39.326Z,31.31
2023-04-25T11:12:39.313Z,31.15
2023-04-25T11:13:39.318Z,31.04
2023-04-25T11:15:39.298Z,31.15
2023-04-25T11:16:39.276Z,31.10
2023-04-25T11:17:39.336Z,31.15
2023-04-25T11:18:39.224Z,31.15
2023-04-25T11:19:39.233Z,31.10
2023-04-25T11:20:39.212Z,31.10
2023-04-25T11:21:39.195Z,31.10
2023-04-25T11:22:39.179Z,31.15
2023-04-25T11:23:39.179Z,31.10
2023-04-25T11:24:39.171Z,31.15
2023-04-25T11:25:39.217Z,31.15
2023-04-25T11:26:39.130Z,31.10
2023-04-25T11:27:39.162Z,31.10
2023-04-25T11:28:39.104Z,31.10
2023-04-25T11:29:39.120Z,31.10
2023-04-25T11:30:39.072Z,31.10
2023-04-25T11:31:39.107Z,31.10
2023-04-25T11:32:39.171Z,31.10
2023-04-25T11:33:39.038Z,31.15
2023-04-25T11:34:39.024Z,31.10
2023-04-25T11:35:39.012Z,31.10
2023-04-25T11:36:38.999Z,31.10
2023-04-25T11:37:38.985Z,31.10
2023-04-25T11:38:38.970Z,31.10
2023-04-25T11:39:38.967Z,31.10
2023-04-25T11:40:38.941Z,31.10
2023-04-25T11:41:38.978Z,31.10
2023-04-25T11:42:38.923Z,31.15
2023-04-25T11:43:39.327Z,31.10
2023-04-25T11:44:38.893Z,31.10
2023-04-25T11:45:38.923Z,31.10
2023-04-25T11:46:39.113Z,31.10
2023-04-25T11:47:38.918Z,31.15
2023-04-25T11:48:38.835Z,31.21
2023-04-25T11:49:38.836Z,31.15
2023-04-25T11:50:38.816Z,31.15
2023-04-25T11:51:38.810Z,31.10
2023-04-25T11:52:38.785Z,31.10
2023-04-25T11:53:38.768Z,31.15
2023-04-25T11:54:38.776Z,32.28
2023-04-25T11:55:38.752Z,31.10
2023-04-25T11:56:38.741Z,31.10
2023-04-25T11:57:38.728Z,31.15
2023-04-25T11:58:38.707Z,31.10
2023-04-25T11:59:38.763Z,31.10
2023-04-25T12:00:38.695Z,31.10
2023-04-25T12:01:38.676Z,31.10
2023-04-25T12:02:38.773Z,31.10
2023-04-25T12:03:38.914Z,31.15
2023-04-25T12:04:38.905Z,32.28
2023-04-25T12:05:38.779Z,31.10
2023-04-25T12:06:38.708Z,31.10
2023-04-25T12:07:38.601Z,30.99
2023-04-25T12:08:38.645Z,31.10
2023-04-25T12:09:38.570Z,31.10
2023-04-25T12:10:38.571Z,31.10
2023-04-25T12:11:40.439Z,31.10
2023-04-25T12:12:38.529Z,31.10
2023-04-25T12:13:38.512Z,31.10
2023-04-25T12:14:38.510Z,31.10
2023-04-25T12:15:38.547Z,31.04
2023-04-25T12:16:38.541Z,31.10
2023-04-25T12:17:38.507Z,31.10
2023-04-25T12:18:38.996Z,31.10
2023-04-25T12:19:38.467Z,31.15
2023-04-25T12:20:38.421Z,31.15
2023-04-25T12:21:46.891Z,31.10
2023-04-25T12:22:39.388Z,31.10
2023-04-25T12:23:38.385Z,31.10
2023-04-25T12:24:39.532Z,31.10
2023-04-25T12:25:38.361Z,31.10
2023-04-25T12:26:38.341Z,31.15
2023-04-25T12:27:38.328Z,31.10
2023-04-25T12:28:38.308Z,31.10
2023-04-25T12:29:48.421Z,31.10
2023-04-25T12:30:41.273Z,31.15
2023-04-25T12:31:38.297Z,31.15
2023-04-25T12:32:38.296Z,31.15
2023-04-25T12:33:38.285Z,31.10
2023-04-25T12:34:38.253Z,31.15
2023-04-25T12:35:38.237Z,31.10
2023-04-25T12:36:38.223Z,31.15
2023-04-25T12:37:38.208Z,31.15
2023-04-25T12:38:38.215Z,31.10
2023-04-25T12:39:38.182Z,31.10
2023-04-25T12:40:38.158Z,31.15
2023-04-25T12:41:38.144Z,31.10
2023-04-25T12:42:38.146Z,31.15
2023-04-25T12:43:38.166Z,31.10
2023-04-25T12:44:38.121Z,31.10
2023-04-25T12:45:38.099Z,31.10
2023-04-25T12:46:38.141Z,31.15
2023-04-25T12:47:38.100Z,31.10
2023-04-25T12:48:38.051Z,31.10
2023-04-25T12:49:38.048Z,31.15
2023-04-25T12:50:38.026Z,31.15
2023-04-25T12:51:38.018Z,31.10
2023-04-25T12:52:37.997Z,31.10
2023-04-25T12:53:37.992Z,31.10
2023-04-25T12:54:38.003Z,31.15
2023-04-25T12:55:37.983Z,31.15